Athelstane, WI

2:41 AM CDT on October 31, 2014 (GMT -0500)
Athelstane Township | Change Station
CLOSE
Current Station
Personal Weather Station
Location: Athelstane, WI
Elevation: 966 ft
Nearby Weather Stations
Active Advisory: Special Statement

Elev 966 ft 45.40 °N, 88.12 °W | Updated 6 seconds ago

Overcast
Overcast
34.9 °F
Feels Like 28 °F
N
9.4
Wind Variable Wind from NNW
Gusts 14.4 mph

Today
High -- | Low -- °F
--% Chance of Precip.
Yesterday
High -- | Low -- °F
Precip. -- in
7:30 AM 5:41 PM
First Quarter, 52% visible
Pressure 30.10 in
Visibility 8.0 miles
Clouds Few 1700 ft
Mostly Cloudy 2800 ft
Overcast 8000 ft
Windchill 28 °F
Dew Point 29 °F
Humidity 79%
Rainfall 0.00 in
Snow Depth Not available.
UV 0 out of 12
Pollen .20 out of 12
Air Quality Not available.
Flu Activity Not available.
METAR KIMT 310654Z AUTO 35013G25KT 8SM FEW017 BKN028 OVC080 01/M02 A3006 RMK AO2 PK WND 01030/0632 SNE21 SLP191 P0000 T00111017

More Conditions Fewer Conditions

Pressure 30.10 in
Visibility 8.0 miles
Clouds Few 1700 ft
Mostly Cloudy 2800 ft
Overcast 8000 ft
Windchill 28 °F
Dew Point 29 °F
Humidity 79%
Rainfall 0.00 in
Snow Depth Not available.
UV 0 out of 12
Pollen .20 out of 12
Air Quality Not available.
Flu Activity Not available.
METAR KIMT 310654Z AUTO 35013G25KT 8SM FEW017 BKN028 OVC080 01/M02 A3006 RMK AO2 PK WND 01030/0632 SNE21 SLP191 P0000 T00111017

More Conditions Fewer Conditions

10-Day Weather Forecast

Almanac

Astronomy

Oct. 31, 2014 Rise Set
Actual Time
Civil Twilight
Nautical Twilight
Astronomical Twilight
Moon
Length of Visible Light
Length of Day
Tomorrow will be .
, % of the Moon is Illuminated

Today's Extremes

State Highs State Lows

Community

WunderPhotos

Upload Photos

1,766,573 photos uploaded!

WunderBlogs® & News

Nearby

Air Quality

  Air Quality AQ Index Pollutant
Not available.

Snow Depth

Station Depth Elevation

Earthquake Activity

City Distance Mag. Time & Date
Minimum magnitude displayed is 2.5.

Coastal Water Temperatures

Place Temperature

Nearby Weather Stations